Time;durP1;ratioP1;P1;durP2;ratioP2;P2;SDS_P1;SDS_P2;PMS_P1;PMS_P2;Temp;Humidity;BMP_temperature;BMP_pressure;BME280_temperature;BME280_humidity;BME280_pressure;Samples;Min_cycle;Max_cycle;Signal;HPM_P1;HPM_P2
2023/09/30 00:01:28;;;;;;;1.30;1.30;;;21.30;99.90;;;;;;4990215;28;20223;-68
2023/09/30 00:03:55;;;;;;;1.33;1.33;;;21.20;99.90;;;;;;4991842;28;20276;-68
2023/09/30 00:06:22;;;;;;;1.50;1.40;;;21.20;99.90;;;;;;4974293;28;20945;-68
2023/09/30 00:08:49;;;;;;;1.10;1.10;;;21.20;99.90;;;;;;4975247;28;20211;-68
2023/09/30 00:11:18;;;;;;;1.35;1.35;;;21.20;99.90;;;;;;4978777;28;20208;-68
2023/09/30 00:13:46;;;;;;;1.25;1.25;;;21.20;99.90;;;;;;4992488;28;20699;-67
2023/09/30 00:16:17;;;;;;;1.30;1.30;;;21.20;99.90;;;;;;4990049;28;20226;-67
2023/09/30 00:18:44;;;;;;;1.58;1.48;;;21.20;99.90;;;;;;4974456;28;20211;-67
2023/09/30 00:21:11;;;;;;;1.42;1.40;;;21.20;99.90;;;;;;4973958;28;20215;-68
2023/09/30 00:23:38;;;;;;;3.08;1.73;;;21.20;99.90;;;;;;4991852;28;20548;-67
2023/09/30 00:26:06;;;;;;;1.73;1.50;;;21.20;99.90;;;;;;4991525;28;20196;-67
2023/09/30 00:28:33;;;;;;;1.60;1.50;;;21.20;99.90;;;;;;4991907;28;20200;-67
2023/09/30 00:31:00;;;;;;;1.70;1.60;;;21.10;99.90;;;;;;4973488;28;20207;-67
2023/09/30 00:33:28;;;;;;;1.55;1.48;;;21.10;99.90;;;;;;4990257;28;20285;-67
2023/09/30 00:35:56;;;;;;;1.80;1.70;;;21.10;99.90;;;;;;4991421;28;20212;-67
2023/09/30 00:38:23;;;;;;;1.63;1.52;;;21.00;99.90;;;;;;4974439;28;20676;-67
2023/09/30 00:40:51;;;;;;;1.65;1.55;;;21.00;99.90;;;;;;4991209;28;20200;-68
2023/09/30 00:43:21;;;;;;;1.90;1.80;;;21.00;99.90;;;;;;4973669;28;20270;-68
2023/09/30 00:45:50;;;;;;;2.15;2.05;;;21.00;99.90;;;;;;4973087;28;20234;-68
2023/09/30 00:48:17;;;;;;;1.98;1.85;;;21.00;99.90;;;;;;4972559;28;20248;-67
2023/09/30 00:50:46;;;;;;;1.95;1.85;;;21.00;99.90;;;;;;4990926;28;20260;-67
2023/09/30 00:53:14;;;;;;;2.58;2.47;;;21.00;99.90;;;;;;4990859;28;20604;-67
2023/09/30 00:55:41;;;;;;;2.22;2.13;;;20.90;99.90;;;;;;4972796;28;20738;-67
2023/09/30 00:58:08;;;;;;;2.20;2.10;;;20.90;99.90;;;;;;4992759;28;20247;-67
2023/09/30 01:00:36;;;;;;;2.35;2.25;;;20.90;99.90;;;;;;4989649;28;20243;-68
2023/09/30 01:03:05;;;;;;;2.75;2.55;;;20.90;99.90;;;;;;4971846;28;20694;-67
2023/09/30 01:05:33;;;;;;;2.70;2.50;;;20.90;99.90;;;;;;4990533;28;20200;-67
2023/09/30 01:08:03;;;;;;;2.42;2.33;;;20.90;99.90;;;;;;4973466;28;20196;-67
2023/09/30 01:10:30;;;;;;;2.40;2.30;;;20.90;99.90;;;;;;4972910;28;20211;-67
2023/09/30 01:12:57;;;;;;;2.30;2.20;;;20.90;99.90;;;;;;4973381;28;20683;-68
2023/09/30 01:15:25;;;;;;;2.58;2.38;;;20.90;99.90;;;;;;4980924;28;20219;-68
2023/09/30 01:17:52;;;;;;;2.55;2.45;;;20.90;99.90;;;;;;4960220;28;20224;-68
2023/09/30 01:20:22;;;;;;;2.50;2.40;;;20.80;99.90;;;;;;4973536;28;20204;-68
2023/09/30 01:22:51;;;;;;;2.28;2.17;;;20.80;99.90;;;;;;4990885;28;20192;-68
2023/09/30 01:25:18;;;;;;;2.75;1.92;;;20.80;99.90;;;;;;4991152;28;20194;-68
2023/09/30 01:27:46;;;;;;;2.67;2.47;;;20.80;99.90;;;;;;4972990;28;20226;-68
2023/09/30 01:30:13;;;;;;;4.45;3.58;;;20.80;99.90;;;;;;4991362;28;20196;-68
2023/09/30 01:32:40;;;;;;;3.60;3.33;;;20.80;99.90;;;;;;4989015;28;20210;-69
2023/09/30 01:35:09;;;;;;;4.40;4.00;;;20.80;99.90;;;;;;4982103;28;20318;-69
2023/09/30 01:37:39;;;;;;;4.80;4.40;;;20.80;99.90;;;;;;4970181;28;20675;-69
2023/09/30 01:40:11;;;;;;;4.20;3.90;;;20.70;99.90;;;;;;4991007;28;20235;-69
2023/09/30 01:42:38;;;;;;;3.13;2.92;;;20.70;99.90;;;;;;4990245;28;20210;-68
2023/09/30 01:45:08;;;;;;;3.33;3.03;;;20.70;99.90;;;;;;4973575;28;20683;-67
2023/09/30 01:47:35;;;;;;;3.58;3.28;;;20.60;99.90;;;;;;4971040;28;20323;-68
2023/09/30 01:50:02;;;;;;;2.75;2.60;;;20.60;99.90;;;;;;4991098;28;20260;-67
2023/09/30 01:52:30;;;;;;;3.70;3.42;;;20.60;99.90;;;;;;4984840;28;20738;-68
2023/09/30 01:54:57;;;;;;;3.80;3.50;;;20.70;99.90;;;;;;4972684;28;20302;-67
2023/09/30 01:57:25;;;;;;;3.97;3.67;;;20.60;99.90;;;;;;4983720;28;20216;-67
2023/09/30 01:59:52;;;;;;;3.47;3.20;;;20.70;99.90;;;;;;4991447;28;20196;-67
2023/09/30 02:02:20;;;;;;;2.90;2.70;;;20.70;99.90;;;;;;4970064;28;20295;-67
2023/09/30 02:04:47;;;;;;;3.58;3.28;;;20.70;99.90;;;;;;4990238;28;20219;-68
2023/09/30 02:07:14;;;;;;;3.17;2.97;;;20.60;99.90;;;;;;4989714;28;20655;-68
2023/09/30 02:09:41;;;;;;;2.55;2.42;;;20.60;99.90;;;;;;4990609;28;20747;-67
2023/09/30 02:12:09;;;;;;;2.97;2.78;;;20.60;99.90;;;;;;4978969;28;20571;-68
2023/09/30 02:14:38;;;;;;;2.92;2.72;;;20.60;99.90;;;;;;4989505;28;20192;-69
2023/09/30 02:17:05;;;;;;;3.17;2.97;;;20.60;99.90;;;;;;4970374;28;20226;-68
2023/09/30 02:19:33;;;;;;;3.20;3.00;;;20.60;99.90;;;;;;4972093;28;20212;-67
2023/09/30 02:22:00;;;;;;;3.50;3.20;;;20.60;99.90;;;;;;4989439;28;20227;-67
2023/09/30 02:24:27;;;;;;;3.70;3.42;;;20.60;99.90;;;;;;4972569;28;20208;-68
2023/09/30 02:26:54;;;;;;;3.45;3.20;;;20.60;99.90;;;;;;4989711;28;20200;-68
2023/09/30 02:29:22;;;;;;;3.03;2.83;;;20.60;99.90;;;;;;4989307;28;20196;-67
2023/09/30 02:31:54;;;;;;;3.33;3.13;;;20.60;99.90;;;;;;4970183;28;20291;-67
2023/09/30 02:34:22;;;;;;;2.80;2.60;;;20.70;99.90;;;;;;4971942;28;20202;-67
2023/09/30 02:36:49;;;;;;;3.80;3.47;;;20.60;99.90;;;;;;4989462;28;20330;-68
2023/09/30 02:39:36;;;;;;;3.30;3.10;;;20.70;99.90;;;;;;4988304;28;20642;-68
2023/09/30 02:42:04;;;;;;;2.47;2.35;;;20.70;99.90;;;;;;4988990;28;20200;-68
2023/09/30 02:44:33;;;;;;;3.22;2.90;;;20.70;99.90;;;;;;4964780;28;20206;-68
2023/09/30 02:47:02;;;;;;;2.55;2.45;;;20.70;99.90;;;;;;4968863;28;20693;-68
2023/09/30 02:49:29;;;;;;;2.60;2.50;;;20.70;99.90;;;;;;4970002;28;20378;-67
2023/09/30 02:51:56;;;;;;;4.68;3.17;;;20.70;99.90;;;;;;4971036;28;20214;-67
2023/09/30 02:54:23;;;;;;;5.15;4.03;;;20.80;99.90;;;;;;4972315;28;20240;-68
2023/09/30 02:56:52;;;;;;;4.25;3.78;;;20.80;99.90;;;;;;4988611;28;20274;-67
2023/09/30 02:59:22;;;;;;;4.95;3.67;;;20.80;99.90;;;;;;4990448;28;20208;-67
2023/09/30 03:01:50;;;;;;;3.95;3.55;;;20.80;99.90;;;;;;4972197;28;20222;-67
2023/09/30 03:04:20;;;;;;;3.78;3.47;;;20.80;99.90;;;;;;4989169;28;20224;-67
2023/09/30 03:06:48;;;;;;;3.03;2.83;;;20.80;99.90;;;;;;4971525;28;20262;-67
2023/09/30 03:09:15;;;;;;;3.95;3.65;;;20.80;99.90;;;;;;4989614;28;20672;-67
2023/09/30 03:11:43;;;;;;;3.53;3.22;;;20.80;99.90;;;;;;4988695;28;20278;-67
2023/09/30 03:14:12;;;;;;;3.08;2.83;;;20.90;99.90;;;;;;4991846;28;20199;-67
2023/09/30 03:16:41;;;;;;;3.00;2.70;;;20.80;99.90;;;;;;4990937;28;20687;-67
2023/09/30 03:19:11;;;;;;;3.78;3.47;;;20.90;99.90;;;;;;4974795;28;20595;-66
2023/09/30 03:21:39;;;;;;;3.15;2.83;;;20.90;99.90;;;;;;4992045;28;20215;-67
2023/09/30 03:24:07;;;;;;;2.85;2.70;;;20.90;99.90;;;;;;4993115;28;20625;-67
2023/09/30 03:26:35;;;;;;;2.90;2.70;;;20.90;99.90;;;;;;4974511;28;20208;-67
2023/09/30 03:29:03;;;;;;;3.03;2.80;;;20.90;99.90;;;;;;4975052;28;20235;-67
2023/09/30 03:31:30;;;;;;;2.10;2.00;;;20.90;99.90;;;;;;4965632;28;20699;-67
2023/09/30 03:33:58;;;;;;;2.70;2.50;;;21.00;99.90;;;;;;4992477;28;20262;-67
2023/09/30 03:36:25;;;;;;;2.05;1.95;;;21.00;99.90;;;;;;4992437;28;20402;-67
2023/09/30 03:38:55;;;;;;;2.15;2.05;;;21.00;99.90;;;;;;4975435;28;20215;-67
2023/09/30 03:41:22;;;;;;;2.30;2.13;;;21.00;99.90;;;;;;4989105;28;20204;-67
2023/09/30 03:43:50;;;;;;;2.90;2.70;;;21.00;99.90;;;;;;4992813;28;20235;-67
2023/09/30 03:46:17;;;;;;;3.75;3.20;;;21.00;99.90;;;;;;4990522;28;20679;-68
2023/09/30 03:48:44;;;;;;;2.90;2.70;;;21.00;99.90;;;;;;4970174;28;20208;-67
2023/09/30 03:51:13;;;;;;;3.10;2.80;;;21.00;99.90;;;;;;4974554;28;20204;-69
2023/09/30 03:53:41;;;;;;;4.55;3.50;;;21.00;99.90;;;;;;4992548;28;20636;-66
2023/09/30 03:56:11;;;;;;;3.03;2.83;;;21.00;99.90;;;;;;4989308;28;20208;-68
2023/09/30 03:58:38;;;;;;;2.83;2.63;;;20.90;99.90;;;;;;4976689;28;20571;-66
2023/09/30 04:01:06;;;;;;;2.05;1.95;;;20.90;99.90;;;;;;4990590;28;20674;-66
2023/09/30 04:03:34;;;;;;;2.20;2.00;;;20.80;99.90;;;;;;4973660;28;20237;-66
2023/09/30 04:06:03;;;;;;;5.65;1.60;;;20.80;99.90;;;;;;4974333;28;20218;-67
2023/09/30 04:08:33;;;;;;;1.95;1.55;;;20.70;99.90;;;;;;4974735;28;20307;-67
2023/09/30 04:11:00;;;;;;;1.60;1.45;;;20.70;99.90;;;;;;4973082;28;20204;-67
2023/09/30 04:13:29;;;;;;;1.40;1.30;;;20.60;99.90;;;;;;4991818;28;20204;-67
2023/09/30 04:15:57;;;;;;;1.27;1.15;;;20.60;99.90;;;;;;4973811;28;20223;-67
2023/09/30 04:18:26;;;;;;;1.70;1.10;;;20.60;99.90;;;;;;4989718;28;20192;-67
2023/09/30 04:20:53;;;;;;;0.98;0.95;;;20.60;99.90;;;;;;4992629;28;20204;-68
2023/09/30 04:23:20;;;;;;;0.95;0.95;;;20.50;99.90;;;;;;4991931;28;20674;-67
2023/09/30 04:25:47;;;;;;;1.17;1.08;;;20.50;99.90;;;;;;4974148;28;20682;-67
2023/09/30 04:28:15;;;;;;;0.82;0.82;;;20.50;99.90;;;;;;4988782;28;20196;-68
2023/09/30 04:30:44;;;;;;;1.33;1.00;;;20.50;99.90;;;;;;4982835;28;20731;-67
2023/09/30 04:33:12;;;;;;;1.10;1.00;;;20.40;99.90;;;;;;4990557;28;20192;-67
2023/09/30 04:35:39;;;;;;;0.90;0.90;;;20.40;99.90;;;;;;4991699;28;20204;-68
2023/09/30 04:38:07;;;;;;;0.82;0.82;;;20.40;99.90;;;;;;4991899;28;20679;-68
2023/09/30 04:40:34;;;;;;;0.75;0.75;;;20.40;99.90;;;;;;4991603;28;20200;-68
2023/09/30 04:43:01;;;;;;;1.20;0.77;;;20.40;99.90;;;;;;4988096;28;20219;-67
2023/09/30 04:45:28;;;;;;;1.17;0.80;;;20.40;99.90;;;;;;4973457;28;20208;-67
2023/09/30 04:47:57;;;;;;;1.00;0.80;;;20.40;99.90;;;;;;4972477;28;20196;-66
2023/09/30 04:50:24;;;;;;;0.80;0.68;;;20.30;99.90;;;;;;4973243;28;20200;-67
2023/09/30 04:52:52;;;;;;;1.10;1.02;;;20.30;99.90;;;;;;4990852;28;20279;-67
2023/09/30 04:55:19;;;;;;;1.50;1.00;;;20.20;99.90;;;;;;4990869;28;20208;-67
2023/09/30 04:57:47;;;;;;;1.20;1.10;;;20.30;99.90;;;;;;4990333;28;20255;-67
2023/09/30 05:00:17;;;;;;;2.08;1.25;;;20.20;99.90;;;;;;4994424;28;20286;-66
2023/09/30 05:02:45;;;;;;;2.90;1.30;;;20.20;99.90;;;;;;4971152;28;20211;-66
2023/09/30 05:05:14;;;;;;;2.05;1.30;;;20.20;99.90;;;;;;4990881;28;20231;-66
2023/09/30 05:07:42;;;;;;;2.33;1.27;;;20.20;99.90;;;;;;4990944;28;20584;-67
2023/09/30 05:10:11;;;;;;;2.75;1.50;;;20.20;99.90;;;;;;4986359;28;20207;-67
2023/09/30 05:12:38;;;;;;;2.45;1.48;;;20.10;99.90;;;;;;4982842;28;20739;-67
2023/09/30 05:15:06;;;;;;;2.78;1.67;;;20.00;99.90;;;;;;4963050;28;20204;-67
2023/09/30 05:17:33;;;;;;;1.38;1.20;;;20.00;99.90;;;;;;4971297;28;20294;-67
2023/09/30 05:20:00;;;;;;;2.00;1.20;;;20.00;99.90;;;;;;4990583;28;20285;-67
2023/09/30 05:22:29;;;;;;;1.90;1.33;;;19.90;99.90;;;;;;4990455;28;20266;-68
2023/09/30 05:24:57;;;;;;;3.67;1.65;;;19.90;99.90;;;;;;4990594;28;20192;-67
2023/09/30 05:27:24;;;;;;;2.10;1.20;;;19.90;99.90;;;;;;4990309;28;20246;-68
2023/09/30 05:29:51;;;;;;;3.55;1.92;;;19.90;99.90;;;;;;4970711;28;20204;-67
2023/09/30 05:32:18;;;;;;;3.50;1.55;;;19.90;99.90;;;;;;4967209;28;20679;-67
2023/09/30 05:34:46;;;;;;;2.97;1.65;;;19.80;99.90;;;;;;4987510;28;20300;-67
2023/09/30 05:37:13;;;;;;;4.45;1.63;;;19.80;99.90;;;;;;4971699;28;20220;-67
2023/09/30 05:39:41;;;;;;;1.48;1.20;;;19.80;99.90;;;;;;4990495;28;20639;-67
2023/09/30 05:42:10;;;;;;;1.40;1.30;;;19.70;99.90;;;;;;4971767;28;20208;-67
2023/09/30 05:44:37;;;;;;;2.75;1.40;;;19.70;99.90;;;;;;4990658;28;20204;-67
2023/09/30 05:47:05;;;;;;;4.00;1.30;;;19.70;99.90;;;;;;4969810;28;20639;-66
2023/09/30 05:49:32;;;;;;;3.65;1.45;;;19.70;99.90;;;;;;4989770;28;20612;-66
2023/09/30 05:51:59;;;;;;;2.67;1.50;;;19.70;99.90;;;;;;4989112;28;20227;-66
2023/09/30 05:54:26;;;;;;;2.63;1.60;;;19.70;99.90;;;;;;4990044;28;20204;-68
2023/09/30 05:56:55;;;;;;;3.72;1.88;;;19.70;99.90;;;;;;4987034;28;20699;-66
2023/09/30 05:59:24;;;;;;;2.72;1.88;;;19.70;99.90;;;;;;4990840;28;20192;-66
2023/09/30 06:01:52;;;;;;;2.63;1.58;;;19.60;99.90;;;;;;4988220;28;20746;-67
2023/09/30 06:04:19;;;;;;;3.70;1.50;;;19.60;99.90;;;;;;4990091;28;20648;-66
2023/09/30 06:06:46;;;;;;;3.85;1.90;;;19.60;99.90;;;;;;4972289;28;20204;-67
2023/09/30 06:09:13;;;;;;;3.83;1.73;;;19.60;99.90;;;;;;4990734;28;20197;-67
2023/09/30 06:11:41;;;;;;;2.17;1.63;;;19.60;99.90;;;;;;4969793;28;20200;-66
2023/09/30 06:14:10;;;;;;;2.92;1.33;;;19.60;99.90;;;;;;4990403;28;20200;-67
2023/09/30 06:16:37;;;;;;;3.20;1.70;;;19.60;99.90;;;;;;4987968;28;20251;-67
2023/09/30 06:19:04;;;;;;;1.63;1.20;;;19.60;99.90;;;;;;4990115;28;20204;-67
2023/09/30 06:21:34;;;;;;;1.38;1.10;;;19.60;99.90;;;;;;4989613;28;20239;-67
2023/09/30 06:24:01;;;;;;;2.92;1.73;;;19.60;99.90;;;;;;4990383;28;20528;-67
2023/09/30 06:26:29;;;;;;;2.72;1.75;;;19.60;99.90;;;;;;4989054;28;20447;-67
2023/09/30 06:28:56;;;;;;;2.40;1.58;;;19.60;99.90;;;;;;4989592;28;20204;-67
2023/09/30 06:31:27;;;;;;;1.83;1.30;;;19.60;99.90;;;;;;4977940;28;20686;-68
2023/09/30 06:33:58;;;;;;;1.67;1.30;;;19.60;99.90;;;;;;4986696;28;20238;-67
2023/09/30 06:36:25;;;;;;;1.55;1.10;;;19.60;99.90;;;;;;4989693;28;20199;-66
2023/09/30 06:38:53;;;;;;;2.17;1.00;;;19.60;99.90;;;;;;4972476;28;20220;-67
2023/09/30 06:41:20;;;;;;;1.92;1.05;;;19.60;99.90;;;;;;4989535;28;20200;-68
2023/09/30 06:43:47;;;;;;;2.67;1.40;;;19.60;99.90;;;;;;4972477;28;20234;-68
2023/09/30 06:46:14;;;;;;;2.35;1.30;;;19.70;99.90;;;;;;4987927;28;20196;-67
2023/09/30 06:48:42;;;;;;;2.50;1.27;;;19.70;99.90;;;;;;4991305;28;20254;-68
2023/09/30 06:51:15;;;;;;;2.65;1.35;;;19.70;99.90;;;;;;4993930;28;20188;-67
2023/09/30 06:53:42;;;;;;;2.83;1.30;;;19.70;99.90;;;;;;4976120;28;20315;-67
2023/09/30 06:56:09;;;;;;;2.83;1.20;;;19.70;99.90;;;;;;4990419;28;20308;-67
2023/09/30 06:58:36;;;;;;;2.30;1.40;;;19.70;99.90;;;;;;4977707;28;20211;-67
2023/09/30 07:01:03;;;;;;;1.63;1.38;;;19.70;99.90;;;;;;4992682;28;20203;-67
2023/09/30 07:03:32;;;;;;;1.23;1.00;;;19.70;99.90;;;;;;4992679;28;20301;-67
2023/09/30 07:06:01;;;;;;;1.42;1.13;;;19.70;99.90;;;;;;4975790;28;20196;-67
2023/09/30 07:08:29;;;;;;;1.88;1.25;;;19.70;99.90;;;;;;4975556;28;20728;-67
2023/09/30 07:10:57;;;;;;;1.77;1.20;;;19.70;99.90;;;;;;4990924;28;20287;-67
2023/09/30 07:13:24;;;;;;;1.60;1.20;;;19.70;99.90;;;;;;4989202;28;20283;-67
2023/09/30 07:15:51;;;;;;;2.42;1.42;;;19.70;99.90;;;;;;4970121;28;20207;-67
2023/09/30 07:18:18;;;;;;;3.13;1.60;;;19.70;99.90;;;;;;4990969;28;20212;-67
2023/09/30 07:20:45;;;;;;;3.00;1.45;;;19.70;99.90;;;;;;4993201;28;20203;-68
2023/09/30 07:23:14;;;;;;;2.67;1.65;;;19.70;99.90;;;;;;4993066;28;20208;-67
2023/09/30 07:25:42;;;;;;;4.65;1.60;;;19.70;99.90;;;;;;4993420;28;20192;-67
2023/09/30 07:28:11;;;;;;;2.53;1.40;;;19.70;99.90;;;;;;4974734;28;20696;-68
2023/09/30 07:30:39;;;;;;;5.30;1.63;;;19.70;99.90;;;;;;4987860;28;20207;-68
2023/09/30 07:33:07;;;;;;;1.52;1.40;;;19.70;99.90;;;;;;4988985;28;20200;-67
2023/09/30 07:35:34;;;;;;;2.35;1.30;;;19.80;99.90;;;;;;4990057;28;20282;-67
2023/09/30 07:38:02;;;;;;;3.75;1.58;;;19.80;99.90;;;;;;4990978;28;20207;-67
2023/09/30 07:40:31;;;;;;;2.70;1.55;;;19.80;99.90;;;;;;4974584;28;20235;-67
2023/09/30 07:42:58;;;;;;;2.38;1.20;;;19.90;99.90;;;;;;4991770;28;20196;-66
2023/09/30 07:45:25;;;;;;;3.15;1.10;;;20.00;99.90;;;;;;4990996;28;20208;-66
2023/09/30 07:47:52;;;;;;;1.58;1.30;;;20.10;99.90;;;;;;4990873;28;20200;-67
2023/09/30 07:50:19;;;;;;;2.78;1.45;;;20.10;99.90;;;;;;4992273;28;20679;-66
2023/09/30 07:52:46;;;;;;;2.95;1.30;;;20.20;99.90;;;;;;4992164;28;20223;-67
2023/09/30 07:55:13;;;;;;;3.67;1.70;;;20.60;99.90;;;;;;4993223;28;20278;-67
2023/09/30 07:57:44;;;;;;;3.13;1.50;;;21.00;99.90;;;;;;4986787;28;20222;-66
2023/09/30 08:00:15;;;;;;;1.83;1.45;;;20.90;99.90;;;;;;4989159;28;20196;-67
2023/09/30 08:02:42;;;;;;;2.78;1.60;;;20.80;99.90;;;;;;4990518;28;20254;-67
2023/09/30 08:05:10;;;;;;;4.88;1.95;;;20.90;99.90;;;;;;4974568;28;20196;-67
2023/09/30 08:07:37;;;;;;;1.73;1.27;;;20.80;99.90;;;;;;4991641;28;20224;-66
2023/09/30 08:10:06;;;;;;;4.10;1.95;;;20.80;99.90;;;;;;4992652;28;20200;-67
2023/09/30 08:12:33;;;;;;;4.13;1.80;;;20.70;99.90;;;;;;4979005;28;20288;-67
2023/09/30 08:15:03;;;;;;;2.72;1.63;;;20.60;99.90;;;;;;4974045;28;20626;-66
2023/09/30 08:17:30;;;;;;;1.85;1.25;;;20.50;99.90;;;;;;4989879;28;20215;-67
2023/09/30 08:19:57;;;;;;;3.22;1.95;;;20.50;99.90;;;;;;4991983;28;20637;-67
2023/09/30 08:22:27;;;;;;;5.10;2.10;;;20.40;99.90;;;;;;4973764;28;20199;-67
2023/09/30 08:24:54;;;;;;;3.25;1.80;;;20.40;99.90;;;;;;4992033;28;20200;-67
2023/09/30 08:27:23;;;;;;;3.13;1.48;;;20.40;99.90;;;;;;4990674;28;20196;-67
2023/09/30 08:29:51;;;;;;;5.10;1.92;;;20.40;99.90;;;;;;4989617;28;20553;-67
2023/09/30 08:32:19;;;;;;;2.50;1.42;;;20.40;99.90;;;;;;4971098;28;20608;-67
2023/09/30 08:34:46;;;;;;;1.70;1.10;;;20.40;99.90;;;;;;4991070;28;20250;-67
2023/09/30 08:37:13;;;;;;;1.48;1.05;;;20.50;99.90;;;;;;4990760;28;20203;-67
2023/09/30 08:39:41;;;;;;;2.17;1.23;;;20.80;99.90;;;;;;4991139;28;20286;-67
2023/09/30 08:42:10;;;;;;;1.50;1.27;;;21.00;99.40;;;;;;4971346;28;20398;-67
2023/09/30 08:44:39;;;;;;;4.00;1.38;;;21.10;98.90;;;;;;4991963;28;20208;-67
2023/09/30 08:47:08;;;;;;;1.48;1.20;;;21.00;98.60;;;;;;4971697;28;20196;-68
2023/09/30 08:49:39;;;;;;;1.60;1.00;;;20.90;98.60;;;;;;4991032;28;20200;-69
2023/09/30 08:52:07;;;;;;;5.78;1.77;;;20.90;98.60;;;;;;4990143;28;20238;-68
2023/09/30 08:54:34;;;;;;;4.05;2.13;;;20.80;98.00;;;;;;4991632;28;20219;-68
2023/09/30 08:57:04;;;;;;;2.70;1.80;;;20.80;98.00;;;;;;4990767;28;20254;-67
2023/09/30 08:59:35;;;;;;;2.65;1.60;;;20.70;98.10;;;;;;4996154;28;20207;-68
2023/09/30 09:02:02;;;;;;;3.08;1.40;;;20.70;97.80;;;;;;4983548;28;20746;-67
2023/09/30 09:04:29;;;;;;;4.95;1.58;;;20.70;97.80;;;;;;4987752;28;20614;-67
2023/09/30 09:06:58;;;;;;;2.08;1.40;;;20.60;97.20;;;;;;4972504;28;20254;-68
2023/09/30 09:09:25;;;;;;;3.92;1.70;;;20.60;97.30;;;;;;4987995;28;20417;-68
2023/09/30 09:11:52;;;;;;;2.03;1.40;;;20.50;97.20;;;;;;4986016;28;20619;-68
2023/09/30 09:14:19;;;;;;;1.35;1.17;;;20.50;97.40;;;;;;4972007;28;20616;-69
2023/09/30 09:16:53;;;;;;;2.53;1.50;;;20.50;97.50;;;;;;4986502;28;20192;-67
2023/09/30 09:19:21;;;;;;;3.53;1.08;;;20.50;97.40;;;;;;4986486;28;20307;-68
2023/09/30 09:21:57;;;;;;;1.38;1.27;;;20.50;97.40;;;;;;4983876;28;20199;-68
2023/09/30 09:24:33;;;;;;;1.73;1.00;;;20.50;97.50;;;;;;4986508;28;20184;-67
2023/09/30 09:27:07;;;;;;;2.65;1.02;;;20.50;97.50;;;;;;4987098;28;20191;-67
2023/09/30 09:29:36;;;;;;;1.20;1.00;;;20.60;97.40;;;;;;4987247;28;20205;-67
2023/09/30 09:32:14;;;;;;;2.35;1.02;;;20.60;97.30;;;;;;4984434;28;20341;-67
2023/09/30 09:34:43;;;;;;;3.42;1.20;;;20.70;97.30;;;;;;4972587;28;20203;-67
2023/09/30 09:37:19;;;;;;;3.30;1.00;;;20.80;97.00;;;;;;4969237;28;20271;-67
2023/09/30 09:39:53;;;;;;;3.05;1.58;;;20.80;96.80;;;;;;4990703;28;20216;-66
2023/09/30 09:42:28;;;;;;;1.40;1.20;;;20.80;96.50;;;;;;4989915;28;20608;-67
2023/09/30 09:45:00;;;;;;;0.93;0.93;;;21.10;96.00;;;;;;4973248;28;20274;-67
2023/09/30 09:47:29;;;;;;;2.30;1.17;;;21.30;95.70;;;;;;4988421;28;20533;-67
2023/09/30 09:49:58;;;;;;;1.98;1.25;;;21.50;95.30;;;;;;4972452;28;20246;-67
2023/09/30 09:52:28;;;;;;;1.70;1.13;;;21.60;95.10;;;;;;4988907;28;20291;-68
2023/09/30 09:54:57;;;;;;;1.20;0.90;;;21.90;94.90;;;;;;4990306;28;20242;-67
2023/09/30 09:57:26;;;;;;;4.22;1.25;;;22.40;94.30;;;;;;4984530;28;20227;-70
2023/09/30 09:59:55;;;;;;;4.20;1.55;;;22.40;94.00;;;;;;4989064;28;20242;-69
2023/09/30 10:02:23;;;;;;;2.95;1.33;;;22.20;93.90;;;;;;4962970;28;20196;-69
2023/09/30 10:04:50;;;;;;;1.63;1.10;;;22.00;93.60;;;;;;4993107;28;20616;-67
2023/09/30 10:07:23;;;;;;;1.38;1.13;;;21.90;93.40;;;;;;4983528;28;20552;-67
2023/09/30 10:09:54;;;;;;;1.98;0.98;;;21.80;93.60;;;;;;4974535;28;20204;-68
2023/09/30 10:12:23;;;;;;;2.58;1.23;;;22.40;93.70;;;;;;4982177;28;20243;-68
2023/09/30 10:14:50;;;;;;;4.00;1.20;;;23.60;92.90;;;;;;4972152;28;20200;-68
2023/09/30 10:17:17;;;;;;;1.10;0.90;;;24.60;91.60;;;;;;4987693;28;20565;-68
2023/09/30 10:20:09;;;;;;;1.50;1.00;;;25.50;90.40;;;;;;4971477;28;20219;-69
2023/09/30 10:22:36;;;;;;;3.92;1.30;;;25.80;88.00;;;;;;4956334;28;20254;-68
2023/09/30 10:25:34;;;;;;;1.33;1.20;;;25.40;85.70;;;;;;4980255;28;20303;-68
2023/09/30 10:28:24;;;;;;;1.50;1.38;;;25.20;85.90;;;;;;4970954;28;20238;-68
2023/09/30 10:31:12;;;;;;;1.70;1.30;;;25.70;85.30;;;;;;4969507;28;20211;-67
2023/09/30 10:34:12;;;;;;;1.50;1.20;;;26.30;83.20;;;;;;4984646;28;20212;-68
2023/09/30 10:36:41;;;;;;;1.40;1.10;;;26.30;81.40;;;;;;4989813;28;20567;-68
2023/09/30 10:39:13;;;;;;;1.20;1.10;;;25.80;81.60;;;;;;4971888;28;20468;-67
2023/09/30 10:42:03;;;;;;;1.17;1.08;;;25.40;82.20;;;;;;4989381;28;20196;-67
2023/09/30 10:44:34;;;;;;;2.70;1.10;;;24.90;83.20;;;;;;4985617;28;20212;-68
2023/09/30 10:47:21;;;;;;;2.05;1.30;;;24.60;83.70;;;;;;4987469;28;20199;-66
2023/09/30 10:49:48;;;;;;;4.32;1.42;;;24.20;83.70;;;;;;4989451;28;20560;-67
2023/09/30 10:52:23;;;;;;;2.63;0.90;;;23.90;84.00;;;;;;4989420;28;20192;-68
2023/09/30 10:54:50;;;;;;;3.33;1.40;;;23.60;84.80;;;;;;4988926;28;20261;-68
2023/09/30 10:57:29;;;;;;;1.83;1.30;;;23.40;85.00;;;;;;4988472;28;20301;-68
2023/09/30 11:00:10;;;;;;;2.08;1.05;;;23.20;85.60;;;;;;4991781;28;20224;-68
2023/09/30 11:02:50;;;;;;;1.70;1.35;;;23.10;86.30;;;;;;4987567;28;20199;-67
2023/09/30 11:05:20;;;;;;;2.38;1.20;;;22.90;87.00;;;;;;4987492;28;20692;-68
2023/09/30 11:07:50;;;;;;;2.92;1.40;;;22.70;87.50;;;;;;4971945;28;20208;-69
2023/09/30 11:10:18;;;;;;;1.83;1.00;;;22.60;88.00;;;;;;4989341;28;20247;-68
2023/09/30 11:12:57;;;;;;;2.30;1.40;;;22.50;88.40;;;;;;4976475;28;20299;-68
2023/09/30 11:15:27;;;;;;;1.85;1.10;;;22.60;88.90;;;;;;4980066;28;20317;-67
2023/09/30 11:17:55;;;;;;;2.13;1.25;;;22.60;89.20;;;;;;4971103;28;20255;-67
2023/09/30 11:20:22;;;;;;;3.80;1.58;;;22.50;89.60;;;;;;4967039;28;20339;-67
2023/09/30 11:22:49;;;;;;;1.90;1.33;;;22.50;90.00;;;;;;4985636;28;20188;-68
2023/09/30 11:25:19;;;;;;;4.57;1.55;;;22.50;90.00;;;;;;4986127;28;20204;-68
2023/09/30 11:27:49;;;;;;;3.60;1.45;;;22.50;90.00;;;;;;4985421;28;20188;-68
2023/09/30 11:30:17;;;;;;;3.47;1.42;;;22.40;90.00;;;;;;4977760;28;20251;-68
2023/09/30 11:32:45;;;;;;;2.08;1.40;;;22.40;90.20;;;;;;4980533;28;20195;-69
2023/09/30 11:35:23;;;;;;;3.88;1.70;;;22.40;90.20;;;;;;4968497;28;20304;-68
2023/09/30 11:37:52;;;;;;;1.55;1.38;;;22.50;90.40;;;;;;4973556;28;20196;-67
2023/09/30 11:40:23;;;;;;;4.28;1.85;;;22.50;90.40;;;;;;4990982;28;20297;-68
2023/09/30 11:43:11;;;;;;;2.28;1.50;;;22.50;90.10;;;;;;4982587;28;20251;-69
2023/09/30 11:45:39;;;;;;;7.70;2.65;;;22.50;89.40;;;;;;4991632;28;20242;-69
2023/09/30 11:48:19;;;;;;;4.30;2.42;;;22.50;87.80;;;;;;4974603;28;20210;-67
2023/09/30 11:50:47;;;;;;;3.25;2.15;;;22.40;86.90;;;;;;4992695;28;20223;-67
2023/09/30 11:53:17;;;;;;;2.97;1.60;;;22.30;87.00;;;;;;4991644;28;20199;-67
2023/09/30 11:55:46;;;;;;;2.90;1.67;;;22.20;87.10;;;;;;4981624;28;20195;-68
2023/09/30 11:58:18;;;;;;;4.82;2.13;;;22.20;87.50;;;;;;4992358;28;20206;-68
2023/09/30 12:00:46;;;;;;;2.60;1.70;;;22.20;87.70;;;;;;4965494;28;20204;-68
2023/09/30 12:03:14;;;;;;;3.30;1.58;;;22.30;88.00;;;;;;4991096;28;20275;-68
2023/09/30 12:05:41;;;;;;;4.88;1.85;;;22.40;87.90;;;;;;4974669;28;20200;-69
2023/09/30 12:08:08;;;;;;;2.63;1.38;;;22.50;87.70;;;;;;4975147;28;20262;-68
2023/09/30 12:10:35;;;;;;;2.47;1.33;;;22.60;87.10;;;;;;4974723;28;20199;-68
2023/09/30 12:13:03;;;;;;;2.45;1.35;;;22.70;86.80;;;;;;4991238;28;20196;-68
2023/09/30 12:15:30;;;;;;;1.83;1.45;;;22.70;86.30;;;;;;4974197;28;20203;-68
2023/09/30 12:17:58;;;;;;;3.72;1.48;;;22.60;86.80;;;;;;4990804;28;20203;-68
2023/09/30 12:20:25;;;;;;;2.22;1.52;;;22.50;87.10;;;;;;4981936;28;20740;-69
2023/09/30 12:22:53;;;;;;;3.92;1.38;;;22.50;86.90;;;;;;4972646;28;20483;-68
2023/09/30 12:25:21;;;;;;;2.50;1.75;;;22.70;87.10;;;;;;4969835;28;20625;-68
2023/09/30 12:27:50;;;;;;;1.65;1.20;;;23.30;85.80;;;;;;4991685;28;20200;-67
2023/09/30 12:30:20;;;;;;;2.40;1.35;;;23.90;84.50;;;;;;4997068;28;20203;-67
2023/09/30 12:32:47;;;;;;;2.13;1.25;;;24.40;83.30;;;;;;4998039;28;20279;-67
2023/09/30 12:35:15;;;;;;;2.13;1.30;;;24.90;82.40;;;;;;4973780;28;20204;-68
2023/09/30 12:37:45;;;;;;;1.30;1.20;;;25.20;81.20;;;;;;4971674;28;20200;-68
2023/09/30 12:40:16;;;;;;;2.88;1.50;;;25.40;79.60;;;;;;4973898;28;20240;-67
2023/09/30 12:42:44;;;;;;;1.58;1.17;;;25.50;79.10;;;;;;4990047;28;20279;-68
2023/09/30 12:45:12;;;;;;;1.10;1.00;;;25.70;78.60;;;;;;4991451;28;20207;-69
2023/09/30 12:47:40;;;;;;;3.15;1.65;;;25.60;77.80;;;;;;4971452;28;20204;-68
2023/09/30 12:50:09;;;;;;;1.75;1.15;;;25.40;77.10;;;;;;4965738;28;20643;-70
2023/09/30 12:52:38;;;;;;;1.27;1.15;;;25.30;77.70;;;;;;4983621;28;20872;-69
2023/09/30 12:55:06;;;;;;;3.88;1.45;;;25.00;78.40;;;;;;4963934;28;20517;-71
2023/09/30 12:57:33;;;;;;;2.72;1.60;;;24.90;79.20;;;;;;4988401;28;20246;-71